createdAt,value
2018-09-25T00:00:23.966Z,7.90
2018-09-25T00:01:33.708Z,7.15
2018-09-25T00:02:43.368Z,11.08
2018-09-25T00:03:52.706Z,11.33
2018-09-25T00:05:02.192Z,14.25
2018-09-25T00:06:11.885Z,3.22
2018-09-25T00:07:21.239Z,8.70
2018-09-25T00:08:30.538Z,5.40
2018-09-25T00:09:39.816Z,10.13
2018-09-25T00:10:49.093Z,7.83
2018-09-25T00:11:58.401Z,5.60
2018-09-25T00:13:07.657Z,9.18
2018-09-25T00:14:17.473Z,7.83
2018-09-25T00:15:26.806Z,6.42
2018-09-25T00:16:36.187Z,10.85
2018-09-25T00:17:45.523Z,3.05
2018-09-25T00:18:54.863Z,7.65
2018-09-25T00:20:04.173Z,11.57
2018-09-25T00:21:13.536Z,8.90
2018-09-25T00:22:22.842Z,6.87
2018-09-25T00:23:32.108Z,10.43
2018-09-25T00:24:41.457Z,8.00
2018-09-25T00:25:51.044Z,9.50
2018-09-25T00:27:00.256Z,5.60
2018-09-25T00:28:09.602Z,12.90
2018-09-25T00:29:18.893Z,9.00
2018-09-25T00:30:28.176Z,3.12
2018-09-25T00:31:37.548Z,5.33
2018-09-25T00:32:46.892Z,9.63
2018-09-25T00:33:56.149Z,11.30
2018-09-25T00:35:05.537Z,6.62
2018-09-25T00:36:15.025Z,4.35
2018-09-25T00:37:24.383Z,6.00
2018-09-25T00:38:33.675Z,6.00
2018-09-25T00:39:42.935Z,7.55
2018-09-25T00:40:52.484Z,13.38
2018-09-25T00:42:01.907Z,12.00
2018-09-25T00:43:11.344Z,6.42
2018-09-25T00:44:20.876Z,10.28
2018-09-25T00:45:30.188Z,9.20
2018-09-25T00:46:39.601Z,13.88
2018-09-25T00:47:48.854Z,13.10
2018-09-25T00:48:58.174Z,8.15
2018-09-25T00:50:07.636Z,7.87
2018-09-25T00:51:17.091Z,13.48
2018-09-25T00:52:26.539Z,10.65
2018-09-25T00:53:35.939Z,5.95
2018-09-25T00:54:45.325Z,8.43
2018-09-25T00:55:54.740Z,7.45
2018-09-25T00:57:04.157Z,8.48
2018-09-25T00:58:13.504Z,10.23
2018-09-25T00:59:22.996Z,6.58
2018-09-25T01:00:32.510Z,16.70
2018-09-25T01:01:42.145Z,8.48
2018-09-25T01:02:51.551Z,11.55
2018-09-25T01:04:01.008Z,14.75
2018-09-25T01:05:10.653Z,12.35
2018-09-25T01:06:20.371Z,6.67
2018-09-25T01:07:29.929Z,14.13
2018-09-25T01:08:39.135Z,13.32
2018-09-25T01:09:48.488Z,8.03
2018-09-25T01:10:58.114Z,15.63
2018-09-25T01:12:07.660Z,20.60
2018-09-25T01:13:17.191Z,11.90
2018-09-25T01:14:26.716Z,8.43
2018-09-25T01:15:36.033Z,17.90
2018-09-25T01:16:45.298Z,13.83
2018-09-25T01:17:54.781Z,17.48
2018-09-25T01:19:04.057Z,10.60
2018-09-25T01:20:13.162Z,8.18
2018-09-25T01:21:22.467Z,14.87
2018-09-25T01:22:31.897Z,8.95
2018-09-25T01:23:41.644Z,9.88
2018-09-25T01:24:50.931Z,16.70
2018-09-25T01:26:00.157Z,11.20
2018-09-25T01:27:09.458Z,10.85
2018-09-25T01:28:18.811Z,11.43
2018-09-25T01:29:29.991Z,16.50
2018-09-25T01:30:39.335Z,15.60
2018-09-25T01:31:48.736Z,9.03
2018-09-25T01:32:58.261Z,16.87
2018-09-25T01:34:07.589Z,12.78
2018-09-25T01:35:16.945Z,10.95
2018-09-25T01:36:26.453Z,14.45
2018-09-25T01:37:35.855Z,12.65
2018-09-25T01:38:46.191Z,15.35
2018-09-25T01:39:55.513Z,15.98
2018-09-25T01:41:04.819Z,10.63
2018-09-25T01:42:14.178Z,9.45
2018-09-25T01:43:23.555Z,14.18
2018-09-25T01:44:33.377Z,14.43
2018-09-25T01:45:42.870Z,11.48
2018-09-25T01:46:52.303Z,10.75
2018-09-25T01:48:01.582Z,11.00
2018-09-25T01:49:11.044Z,9.45
2018-09-25T01:50:20.384Z,12.05
2018-09-25T01:51:29.728Z,9.80
2018-09-25T01:52:39.047Z,13.90
2018-09-25T01:53:48.252Z,10.15
2018-09-25T01:54:57.579Z,13.22
2018-09-25T01:56:07.268Z,16.10
2018-09-25T01:57:16.718Z,10.80
2018-09-25T01:58:26.104Z,9.65
2018-09-25T01:59:35.449Z,15.65
2018-09-25T02:00:44.705Z,8.50
2018-09-25T02:01:53.998Z,10.98
2018-09-25T02:03:03.396Z,12.98
2018-09-25T02:04:12.936Z,7.72
2018-09-25T02:05:22.761Z,13.58
2018-09-25T02:06:32.313Z,12.65
2018-09-25T02:07:42.251Z,19.90
2018-09-25T02:08:51.616Z,12.90
2018-09-25T02:10:00.977Z,10.72
2018-09-25T02:11:10.329Z,12.55
2018-09-25T02:12:19.800Z,10.23
2018-09-25T02:13:29.308Z,8.18
2018-09-25T02:14:38.763Z,10.40
2018-09-25T02:15:48.150Z,11.22
2018-09-25T02:16:57.400Z,9.18
2018-09-25T02:18:06.672Z,8.40
2018-09-25T02:19:16.054Z,12.10
2018-09-25T02:20:25.388Z,9.75
2018-09-25T02:21:34.745Z,11.60
2018-09-25T02:22:44.105Z,16.07
2018-09-25T02:23:53.650Z,13.30
2018-09-25T02:25:02.989Z,8.95
2018-09-25T02:26:12.287Z,11.53
2018-09-25T02:27:21.643Z,14.78
2018-09-25T02:28:31.090Z,8.88
2018-09-25T02:29:40.341Z,10.88
2018-09-25T02:30:49.591Z,13.45
2018-09-25T02:31:58.976Z,9.93
2018-09-25T02:33:08.311Z,12.18
2018-09-25T02:34:17.694Z,13.32
2018-09-25T02:35:27.105Z,9.50
2018-09-25T02:36:36.506Z,12.75
2018-09-25T02:37:46.032Z,9.00
2018-09-25T02:38:55.507Z,9.58
2018-09-25T02:40:04.799Z,11.75
2018-09-25T02:41:14.110Z,14.50
2018-09-25T02:42:23.626Z,15.63
2018-09-25T02:43:32.956Z,14.53
2018-09-25T02:44:42.556Z,17.52
2018-09-25T02:45:51.879Z,9.60
2018-09-25T02:47:01.252Z,17.07
2018-09-25T02:48:10.598Z,17.17
2018-09-25T02:49:19.969Z,18.02
2018-09-25T02:50:29.612Z,11.63
2018-09-25T02:51:38.972Z,15.25
2018-09-25T02:52:48.251Z,15.43
2018-09-25T02:53:57.532Z,9.63
2018-09-25T02:55:06.905Z,11.68
2018-09-25T02:56:16.263Z,13.65
2018-09-25T02:57:25.996Z,15.03
2018-09-25T02:58:35.433Z,7.80
2018-09-25T02:59:44.739Z,13.32
2018-09-25T03:00:54.002Z,12.00
2018-09-25T03:02:03.234Z,9.33
2018-09-25T03:03:12.574Z,11.05
2018-09-25T03:04:21.987Z,7.47
2018-09-25T03:05:31.587Z,8.40
2018-09-25T03:06:40.817Z,15.03
2018-09-25T03:07:50.185Z,15.95
2018-09-25T03:08:59.793Z,10.35
2018-09-25T03:10:09.116Z,15.65
2018-09-25T03:11:18.449Z,10.03
2018-09-25T03:12:27.831Z,11.28
2018-09-25T03:13:37.270Z,11.90
2018-09-25T03:14:46.776Z,10.90
2018-09-25T03:15:56.132Z,13.85
2018-09-25T03:17:05.449Z,14.45
2018-09-25T03:18:14.664Z,12.03
2018-09-25T03:19:24.136Z,12.70
2018-09-25T03:20:33.417Z,20.12
2018-09-25T03:21:42.734Z,12.47
2018-09-25T03:22:52.504Z,8.90
2018-09-25T03:24:02.045Z,10.53
2018-09-25T03:25:11.711Z,13.70
2018-09-25T03:26:21.124Z,12.35
2018-09-25T03:27:30.566Z,10.20
2018-09-25T03:28:40.108Z,10.45
2018-09-25T03:29:49.543Z,9.10
2018-09-25T03:30:59.010Z,9.58
2018-09-25T03:32:08.528Z,12.98
2018-09-25T03:33:17.878Z,13.78
2018-09-25T03:34:27.340Z,9.85
2018-09-25T03:35:36.766Z,7.03
2018-09-25T03:36:46.271Z,11.38
2018-09-25T03:37:55.661Z,10.23
2018-09-25T03:39:05.291Z,16.82
2018-09-25T03:40:14.562Z,14.93
2018-09-25T03:41:24.120Z,13.80
2018-09-25T03:42:33.768Z,14.60
2018-09-25T03:43:43.046Z,12.13
2018-09-25T03:44:52.411Z,13.35
2018-09-25T03:46:01.796Z,17.52
2018-09-25T03:47:11.189Z,7.25
2018-09-25T03:48:20.510Z,16.15
2018-09-25T03:49:29.803Z,8.60
2018-09-25T03:50:39.100Z,14.10
2018-09-25T03:51:48.557Z,13.90
2018-09-25T03:52:58.215Z,12.23
2018-09-25T03:54:07.581Z,11.68
2018-09-25T03:55:17.007Z,22.67
2018-09-25T03:56:26.737Z,11.93
2018-09-25T03:57:36.236Z,11.83
2018-09-25T03:58:45.705Z,16.32
2018-09-25T03:59:55.153Z,14.45
2018-09-25T04:01:04.533Z,10.93
2018-09-25T04:02:14.156Z,12.00
2018-09-25T04:03:23.363Z,12.20
2018-09-25T04:04:32.709Z,15.55
2018-09-25T04:05:42.200Z,15.23
2018-09-25T04:06:51.476Z,14.95
2018-09-25T04:08:00.758Z,11.80
2018-09-25T04:09:11.770Z,11.25
2018-09-25T04:10:21.230Z,11.50
2018-09-25T04:11:30.559Z,18.57
2018-09-25T04:12:39.811Z,10.80
2018-09-25T04:13:49.103Z,12.60
2018-09-25T04:14:58.422Z,15.25
2018-09-25T04:16:07.764Z,12.98
2018-09-25T04:17:17.167Z,13.83
2018-09-25T04:18:26.514Z,16.95
2018-09-25T04:19:35.881Z,17.95
2018-09-25T04:20:45.226Z,11.43
2018-09-25T04:21:54.937Z,11.93
2018-09-25T04:23:04.265Z,17.20
2018-09-25T04:24:13.596Z,15.50
2018-09-25T04:25:22.914Z,13.40
2018-09-25T04:26:32.305Z,10.90
2018-09-25T04:27:41.680Z,15.32
2018-09-25T04:28:51.506Z,15.53
2018-09-25T04:30:00.856Z,12.58
2018-09-25T04:31:10.144Z,21.20
2018-09-25T04:32:19.518Z,18.10
2018-09-25T04:33:28.876Z,23.70
2018-09-25T04:34:38.163Z,14.63
2018-09-25T04:35:47.558Z,24.30
2018-09-25T04:36:56.919Z,19.25
2018-09-25T04:38:06.539Z,22.15
2018-09-25T04:39:15.814Z,17.40
2018-09-25T04:40:25.405Z,13.85
2018-09-25T04:41:34.881Z,15.45
2018-09-25T04:42:44.270Z,12.40
2018-09-25T04:43:53.536Z,17.27
2018-09-25T04:45:02.850Z,16.15
2018-09-25T04:46:12.187Z,12.07
2018-09-25T04:47:21.580Z,17.02
2018-09-25T04:48:30.966Z,18.12
2018-09-25T04:49:40.265Z,16.82
2018-09-25T04:50:49.760Z,12.65
2018-09-25T04:51:59.266Z,16.17
2018-09-25T04:53:08.726Z,12.03
2018-09-25T04:54:18.195Z,15.93
2018-09-25T04:55:27.604Z,23.70
2018-09-25T04:56:37.087Z,16.82
2018-09-25T04:57:46.635Z,15.58
2018-09-25T04:58:55.977Z,37.13
2018-09-25T05:00:05.335Z,15.68
2018-09-25T05:01:14.818Z,12.93
2018-09-25T05:02:24.248Z,11.35
2018-09-25T05:03:33.640Z,18.35
2018-09-25T05:04:42.939Z,18.40
2018-09-25T05:05:52.525Z,15.72
2018-09-25T05:07:01.798Z,13.80
2018-09-25T05:08:11.164Z,18.10
2018-09-25T05:09:20.537Z,12.82
2018-09-25T05:10:29.753Z,11.78
2018-09-25T05:11:39.161Z,13.62
2018-09-25T05:12:48.436Z,12.95
2018-09-25T05:13:57.687Z,14.07
2018-09-25T05:15:07.226Z,19.12
2018-09-25T05:16:16.698Z,14.10
2018-09-25T05:17:26.060Z,16.97
2018-09-25T05:18:35.398Z,14.55
2018-09-25T05:19:44.940Z,13.70
2018-09-25T05:20:54.336Z,15.70
2018-09-25T05:22:03.874Z,12.03
2018-09-25T05:23:13.259Z,16.20
2018-09-25T05:24:22.589Z,14.58
2018-09-25T05:25:31.918Z,24.52
2018-09-25T05:26:41.219Z,17.15
2018-09-25T05:27:50.488Z,14.40
2018-09-25T05:28:59.748Z,16.62
2018-09-25T05:30:09.137Z,14.68
2018-09-25T05:31:18.500Z,11.80
2018-09-25T05:32:27.836Z,18.98
2018-09-25T05:33:37.316Z,10.38
2018-09-25T05:34:46.654Z,10.00
2018-09-25T05:35:56.029Z,21.77
2018-09-25T05:37:05.483Z,22.80
2018-09-25T05:38:15.110Z,12.20
2018-09-25T05:39:24.482Z,15.45
2018-09-25T05:40:33.949Z,16.07
2018-09-25T05:41:43.279Z,17.48
2018-09-25T05:42:52.689Z,12.85
2018-09-25T05:44:03.238Z,18.17
2018-09-25T05:45:12.724Z,21.80
2018-09-25T05:46:22.159Z,10.43
2018-09-25T05:47:31.640Z,15.32
2018-09-25T05:48:41.232Z,14.38
2018-09-25T05:49:50.560Z,11.30
2018-09-25T05:50:59.854Z,7.70
2018-09-25T05:52:09.220Z,21.48
2018-09-25T05:53:18.709Z,8.83
2018-09-25T05:54:28.420Z,14.70
2018-09-25T05:55:38.116Z,12.65
2018-09-25T05:56:47.395Z,16.70
2018-09-25T05:57:56.706Z,10.65
2018-09-25T05:59:06.028Z,18.30
2018-09-25T06:00:15.597Z,13.55
2018-09-25T06:01:24.936Z,14.28
2018-09-25T06:02:34.280Z,12.98
2018-09-25T06:03:43.659Z,11.50
2018-09-25T06:04:52.904Z,15.75
2018-09-25T06:06:02.576Z,15.58
2018-09-25T06:07:12.028Z,10.23
2018-09-25T06:08:21.408Z,17.60
2018-09-25T06:09:30.816Z,14.23
2018-09-25T06:10:40.225Z,14.05
2018-09-25T06:11:49.728Z,15.23
2018-09-25T06:12:59.059Z,16.50
2018-09-25T06:14:08.496Z,17.85
2018-09-25T06:15:17.863Z,16.52
2018-09-25T06:16:27.271Z,10.85
2018-09-25T06:17:36.845Z,9.93
2018-09-25T06:18:46.482Z,21.02
2018-09-25T06:19:55.755Z,14.93
2018-09-25T06:21:05.032Z,19.10
2018-09-25T06:22:14.491Z,14.58
2018-09-25T06:23:23.798Z,13.22
2018-09-25T06:24:33.278Z,16.90
2018-09-25T06:25:42.862Z,20.60
2018-09-25T06:26:52.349Z,9.83
2018-09-25T06:28:01.776Z,11.80
2018-09-25T06:29:11.130Z,18.25
2018-09-25T06:30:20.554Z,9.58
2018-09-25T06:31:29.978Z,20.82
2018-09-25T06:32:39.446Z,16.97
2018-09-25T06:33:48.762Z,12.63
2018-09-25T06:34:58.313Z,11.83
2018-09-25T06:36:07.637Z,16.07
2018-09-25T06:37:17.003Z,13.62
2018-09-25T06:38:26.280Z,18.95
2018-09-25T06:39:35.599Z,17.80
2018-09-25T06:40:44.997Z,12.15
2018-09-25T06:41:54.399Z,17.40
2018-09-25T06:43:03.683Z,12.33
2018-09-25T06:44:12.998Z,20.10
2018-09-25T06:45:22.375Z,11.68
2018-09-25T06:46:31.620Z,18.05
2018-09-25T06:47:40.959Z,14.33
2018-09-25T06:48:50.341Z,10.90
2018-09-25T06:49:59.705Z,15.95
2018-09-25T06:51:08.986Z,14.00
2018-09-25T06:52:18.368Z,17.75
2018-09-25T06:53:27.667Z,13.68
2018-09-25T06:54:37.002Z,16.12
2018-09-25T06:55:46.235Z,13.90
2018-09-25T06:56:55.677Z,13.08
2018-09-25T06:58:05.081Z,14.20
2018-09-25T06:59:14.477Z,21.25
2018-09-25T07:00:24.108Z,20.25
2018-09-25T07:01:33.924Z,17.45
2018-09-25T07:02:43.475Z,18.05
2018-09-25T07:03:53.074Z,17.90
2018-09-25T07:05:02.477Z,13.88
2018-09-25T07:06:11.955Z,19.42
2018-09-25T07:07:21.496Z,14.35
2018-09-25T07:08:31.018Z,20.15
2018-09-25T07:09:40.386Z,17.90
2018-09-25T07:10:49.725Z,18.40
2018-09-25T07:11:59.115Z,15.93
2018-09-25T07:13:08.558Z,29.20
2018-09-25T07:14:17.979Z,22.20
2018-09-25T07:15:27.538Z,14.03
2018-09-25T07:16:36.949Z,15.68
2018-09-25T07:17:46.467Z,27.42
2018-09-25T07:18:56.042Z,17.42
2018-09-25T07:20:05.380Z,15.38
2018-09-25T07:21:14.835Z,14.70
2018-09-25T07:22:24.125Z,20.15
2018-09-25T07:23:33.592Z,20.62
2018-09-25T07:24:43.295Z,30.35
2018-09-25T07:25:53.023Z,18.77
2018-09-25T07:27:02.458Z,21.42
2018-09-25T07:28:11.763Z,15.78
2018-09-25T07:29:21.450Z,23.22
2018-09-25T07:30:31.422Z,20.40
2018-09-25T07:31:41.502Z,17.45
2018-09-25T07:32:51.228Z,21.05
2018-09-25T07:34:00.790Z,20.10
2018-09-25T07:35:10.359Z,19.12
2018-09-25T07:36:21.102Z,17.02
2018-09-25T07:37:30.797Z,21.15
2018-09-25T07:38:40.219Z,20.60
2018-09-25T07:39:50.297Z,14.55
2018-09-25T07:40:59.822Z,18.77
2018-09-25T07:42:09.800Z,17.90
2018-09-25T07:43:19.682Z,29.60
2018-09-25T07:44:30.308Z,22.60
2018-09-25T07:45:39.716Z,26.33
2018-09-25T07:46:50.346Z,18.45
2018-09-25T07:48:00.441Z,22.73
2018-09-25T07:49:10.277Z,17.17
2018-09-25T07:50:20.339Z,24.85
2018-09-25T07:51:29.759Z,18.55
2018-09-25T07:52:39.235Z,15.08
2018-09-25T07:53:48.633Z,31.90
2018-09-25T07:54:58.017Z,19.12
2018-09-25T07:56:07.528Z,24.23
2018-09-25T07:57:16.874Z,21.50
2018-09-25T07:58:26.236Z,33.18
2018-09-25T07:59:35.623Z,21.70
2018-09-25T08:00:44.904Z,18.12
2018-09-25T08:01:54.309Z,17.35
2018-09-25T08:03:03.827Z,30.88
2018-09-25T08:04:13.209Z,21.85
2018-09-25T08:05:22.625Z,16.37
2018-09-25T08:06:32.403Z,19.52
2018-09-25T08:07:41.872Z,20.17
2018-09-25T08:08:51.724Z,25.88
2018-09-25T08:10:00.987Z,18.10
2018-09-25T08:11:10.303Z,22.65
2018-09-25T08:12:19.588Z,20.45
2018-09-25T08:13:29.035Z,21.40
2018-09-25T08:14:38.500Z,22.73
2018-09-25T08:15:47.990Z,22.70
2018-09-25T08:16:57.253Z,18.75
2018-09-25T08:18:06.737Z,18.48
2018-09-25T08:19:16.443Z,20.08
2018-09-25T08:20:25.802Z,23.98
2018-09-25T08:21:35.399Z,14.93
2018-09-25T08:22:45.987Z,17.52
2018-09-25T08:23:55.321Z,18.82
2018-09-25T08:25:04.831Z,18.17
2018-09-25T08:26:14.231Z,19.25
2018-09-25T08:27:23.745Z,24.27
2018-09-25T08:28:33.123Z,22.52
2018-09-25T08:29:42.467Z,21.30
2018-09-25T08:30:51.710Z,14.60
2018-09-25T08:32:01.064Z,19.65
2018-09-25T08:33:10.324Z,20.68
2018-09-25T08:34:19.820Z,22.15
2018-09-25T08:35:29.210Z,19.73
2018-09-25T08:36:38.516Z,19.55
2018-09-25T08:37:47.926Z,20.85
2018-09-25T08:38:57.764Z,16.85
2018-09-25T08:40:07.033Z,20.70
2018-09-25T08:41:16.941Z,18.45
2018-09-25T08:42:26.286Z,16.77
2018-09-25T08:43:35.711Z,25.25
2018-09-25T08:44:45.010Z,17.50
2018-09-25T08:45:54.371Z,19.62
2018-09-25T08:47:03.585Z,18.37
2018-09-25T08:48:12.866Z,21.37
2018-09-25T08:49:22.490Z,15.10
2018-09-25T08:50:32.003Z,22.22
2018-09-25T08:51:41.280Z,19.20
2018-09-25T08:52:50.626Z,15.05
2018-09-25T08:53:59.975Z,17.42
2018-09-25T08:55:09.328Z,19.40
2018-09-25T08:56:18.617Z,26.68
2018-09-25T08:57:27.907Z,26.97
2018-09-25T08:58:37.379Z,19.17
2018-09-25T08:59:46.854Z,16.10
2018-09-25T09:00:56.406Z,21.20
2018-09-25T09:02:05.721Z,19.25
2018-09-25T09:03:14.939Z,19.27
2018-09-25T09:04:24.477Z,21.73
2018-09-25T09:05:34.844Z,18.98
2018-09-25T09:06:44.269Z,18.05
2018-09-25T09:07:53.591Z,20.25
2018-09-25T09:09:03.139Z,21.85
2018-09-25T09:10:12.789Z,17.42
2018-09-25T09:11:22.083Z,26.07
2018-09-25T09:12:31.438Z,31.10
2018-09-25T09:13:40.772Z,19.65
2018-09-25T09:14:50.100Z,25.43
2018-09-25T09:15:59.459Z,20.27
2018-09-25T09:17:09.029Z,16.12
2018-09-25T09:18:18.503Z,22.05
2018-09-25T09:19:27.888Z,23.18
2018-09-25T09:20:37.451Z,14.05
2018-09-25T09:21:46.963Z,17.25
2018-09-25T09:22:56.270Z,13.68
2018-09-25T09:24:05.621Z,15.60
2018-09-25T09:25:15.420Z,18.77
2018-09-25T09:26:24.884Z,15.43
2018-09-25T09:27:34.206Z,16.65
2018-09-25T09:28:43.602Z,21.25
2018-09-25T09:29:53.155Z,17.82
2018-09-25T09:31:06.564Z,17.20
2018-09-25T09:32:16.179Z,19.20
2018-09-25T09:33:25.793Z,20.80
2018-09-25T09:34:35.209Z,19.55
2018-09-25T09:35:44.784Z,19.77
2018-09-25T09:36:54.525Z,16.10
2018-09-25T09:38:04.076Z,16.40
2018-09-25T09:39:14.068Z,16.65
2018-09-25T09:40:23.390Z,17.48
2018-09-25T09:41:32.869Z,14.45
2018-09-25T09:42:42.008Z,21.60
2018-09-25T09:43:51.336Z,13.40
2018-09-25T09:45:00.647Z,16.10
2018-09-25T09:46:09.983Z,18.70
2018-09-25T09:47:19.366Z,18.57
2018-09-25T09:48:28.970Z,17.07
2018-09-25T09:49:38.633Z,24.27
2018-09-25T09:50:47.991Z,10.38
2018-09-25T09:51:57.295Z,22.42
2018-09-25T09:53:06.599Z,19.32
2018-09-25T09:54:15.933Z,16.93
2018-09-25T09:55:25.212Z,16.80
2018-09-25T09:56:34.521Z,19.23
2018-09-25T09:57:44.051Z,15.98
2018-09-25T09:58:54.045Z,13.90
2018-09-25T10:00:03.516Z,16.05
2018-09-25T10:01:12.928Z,19.23
2018-09-25T10:02:22.370Z,15.65
2018-09-25T10:03:31.837Z,16.48
2018-09-25T10:04:41.336Z,21.95
2018-09-25T10:05:51.081Z,12.60
2018-09-25T10:07:00.793Z,14.43
2018-09-25T10:08:10.578Z,16.37
2018-09-25T10:09:20.049Z,18.48
2018-09-25T10:10:29.608Z,21.95
2018-09-25T10:11:38.963Z,15.48
2018-09-25T10:12:48.384Z,13.60
2018-09-25T10:13:57.865Z,40.38
2018-09-25T10:15:07.267Z,16.23
2018-09-25T10:16:16.570Z,14.28
2018-09-25T10:17:26.803Z,12.50
2018-09-25T10:18:36.268Z,9.80
2018-09-25T10:19:45.636Z,12.78
2018-09-25T10:20:55.212Z,10.72
2018-09-25T10:22:04.527Z,13.93
2018-09-25T10:23:13.900Z,7.65
2018-09-25T10:24:23.242Z,14.35
2018-09-25T10:25:32.451Z,9.80
2018-09-25T10:26:41.802Z,12.33
2018-09-25T10:27:51.162Z,19.80
2018-09-25T10:29:00.738Z,15.10
2018-09-25T10:30:10.131Z,12.07
2018-09-25T10:31:19.399Z,9.13
2018-09-25T10:32:30.716Z,11.73
2018-09-25T10:33:40.525Z,17.10
2018-09-25T10:34:49.835Z,11.53
2018-09-25T10:35:59.295Z,16.42
2018-09-25T10:37:08.907Z,8.13
2018-09-25T10:38:18.226Z,14.50
2018-09-25T10:39:27.578Z,10.30
2018-09-25T10:40:36.932Z,11.78
2018-09-25T10:41:46.206Z,10.90
2018-09-25T10:42:55.598Z,14.90
2018-09-25T10:44:06.161Z,12.47
2018-09-25T10:45:15.585Z,10.78
2018-09-25T10:46:24.882Z,11.65
2018-09-25T10:47:34.316Z,14.10
2018-09-25T10:48:43.758Z,8.58
2018-09-25T10:49:53.195Z,11.53
2018-09-25T10:51:02.695Z,13.45
2018-09-25T10:52:12.078Z,10.70
2018-09-25T10:53:21.928Z,10.50
2018-09-25T10:54:31.374Z,10.60
2018-09-25T10:55:40.864Z,12.13
2018-09-25T10:56:50.406Z,7.28
2018-09-25T10:57:59.856Z,8.53
2018-09-25T10:59:09.146Z,10.23
2018-09-25T11:00:18.573Z,9.53
2018-09-25T11:01:27.784Z,9.75
2018-09-25T11:02:37.118Z,12.15
2018-09-25T11:03:46.452Z,5.75
2018-09-25T11:04:55.823Z,11.48
2018-09-25T11:06:05.281Z,13.30
2018-09-25T11:07:14.596Z,9.18
2018-09-25T11:08:23.968Z,10.53
2018-09-25T11:09:33.231Z,10.40
2018-09-25T11:10:42.809Z,8.43
2018-09-25T11:11:52.278Z,7.72
2018-09-25T11:13:01.769Z,8.45
2018-09-25T11:14:11.251Z,10.03
2018-09-25T11:15:20.506Z,6.45
2018-09-25T11:16:29.849Z,8.68
2018-09-25T11:17:39.330Z,10.80
2018-09-25T11:18:48.689Z,11.70
2018-09-25T11:19:58.020Z,9.73
2018-09-25T11:21:07.388Z,8.95
2018-09-25T11:22:16.732Z,7.00
2018-09-25T11:23:26.056Z,6.87
2018-09-25T11:24:35.412Z,6.67
2018-09-25T11:25:44.908Z,10.53
2018-09-25T11:26:54.468Z,7.37
2018-09-25T11:28:03.785Z,7.85
2018-09-25T11:29:13.316Z,6.20
2018-09-25T11:30:22.654Z,9.10
2018-09-25T11:31:32.671Z,8.05
2018-09-25T11:32:41.931Z,9.55
2018-09-25T11:33:51.318Z,6.53
2018-09-25T11:35:00.838Z,6.78
2018-09-25T11:36:10.146Z,8.18
2018-09-25T11:37:19.468Z,8.90
2018-09-25T11:38:28.811Z,8.93
2018-09-25T11:39:38.200Z,6.17
2018-09-25T11:40:47.664Z,10.70
2018-09-25T11:41:56.946Z,6.05
2018-09-25T11:43:06.335Z,9.35
2018-09-25T11:44:15.553Z,8.33
2018-09-25T11:45:24.924Z,7.53
2018-09-25T11:46:34.499Z,4.37
2018-09-25T11:47:43.962Z,5.08
2018-09-25T11:48:53.589Z,9.75
2018-09-25T11:50:02.859Z,10.00
2018-09-25T11:51:12.213Z,5.03
2018-09-25T11:52:22.467Z,9.75
2018-09-25T11:53:31.897Z,6.62
2018-09-25T11:54:41.110Z,6.37
2018-09-25T11:55:50.661Z,4.87
2018-09-25T11:57:00.081Z,11.50
2018-09-25T11:58:09.521Z,7.58
2018-09-25T11:59:18.984Z,6.17
2018-09-25T12:00:28.498Z,7.08
2018-09-25T12:01:37.818Z,4.20
2018-09-25T12:02:47.088Z,6.08
2018-09-25T12:03:56.375Z,6.60
2018-09-25T12:05:05.659Z,6.37
2018-09-25T12:06:15.089Z,6.53
2018-09-25T12:07:24.523Z,5.97
2018-09-25T12:08:33.905Z,4.55
2018-09-25T12:09:43.431Z,9.13
2018-09-25T12:10:52.807Z,7.05
2018-09-25T12:12:02.292Z,9.03
2018-09-25T12:13:11.775Z,7.95
2018-09-25T12:14:21.262Z,3.95
2018-09-25T12:15:30.772Z,6.40
2018-09-25T12:16:40.214Z,12.85
2018-09-25T12:17:49.604Z,4.42
2018-09-25T12:18:58.919Z,9.25
2018-09-25T12:20:08.209Z,13.98
2018-09-25T12:21:17.621Z,9.78
2018-09-25T12:22:27.124Z,8.10
2018-09-25T12:23:36.575Z,8.55
2018-09-25T12:24:46.009Z,6.75
2018-09-25T12:25:55.403Z,6.40
2018-09-25T12:27:04.714Z,6.53
2018-09-25T12:28:14.034Z,10.82
2018-09-25T12:29:23.465Z,5.72
2018-09-25T12:30:32.896Z,9.83
2018-09-25T12:31:42.289Z,6.72
2018-09-25T12:32:51.702Z,6.00
2018-09-25T12:34:01.019Z,11.25
2018-09-25T12:35:10.398Z,7.15
2018-09-25T12:36:19.712Z,10.60
2018-09-25T12:37:29.047Z,9.03
2018-09-25T12:38:38.536Z,4.97
2018-09-25T12:39:47.914Z,7.35
2018-09-25T12:40:57.431Z,7.12
2018-09-25T12:42:06.874Z,7.10
2018-09-25T12:43:16.614Z,6.35
2018-09-25T12:44:26.152Z,8.60
2018-09-25T12:45:35.583Z,14.23
2018-09-25T12:46:45.118Z,5.15
2018-09-25T12:47:54.384Z,5.62
2018-09-25T12:49:03.728Z,9.55
2018-09-25T12:50:13.059Z,10.13
2018-09-25T12:51:22.342Z,13.70
2018-09-25T12:52:31.696Z,7.20
2018-09-25T12:53:40.906Z,9.78
2018-09-25T12:54:50.163Z,4.17
2018-09-25T12:55:59.461Z,10.15
2018-09-25T12:57:08.688Z,9.80
2018-09-25T12:58:18.018Z,6.75
2018-09-25T12:59:27.235Z,3.65
2018-09-25T13:00:36.645Z,8.90
2018-09-25T13:01:45.997Z,12.25
2018-09-25T13:02:55.352Z,12.58
2018-09-25T13:04:04.664Z,6.35
2018-09-25T13:05:14.097Z,7.53
2018-09-25T13:06:23.400Z,8.63
2018-09-25T13:07:32.999Z,7.50
2018-09-25T13:08:42.527Z,12.55
2018-09-25T13:09:52.006Z,8.05
2018-09-25T13:11:01.465Z,6.45
2018-09-25T13:12:10.853Z,7.92
2018-09-25T13:13:20.255Z,10.15
2018-09-25T13:14:29.781Z,8.40
2018-09-25T13:15:39.267Z,7.47
2018-09-25T13:16:48.592Z,8.08
2018-09-25T13:17:57.891Z,5.10
2018-09-25T13:19:07.462Z,8.90
2018-09-25T13:20:16.909Z,5.92
2018-09-25T13:21:26.491Z,6.65
2018-09-25T13:22:35.791Z,6.78
2018-09-25T13:23:45.110Z,6.58
2018-09-25T13:24:54.457Z,8.53
2018-09-25T13:26:03.708Z,5.42
2018-09-25T13:27:13.040Z,5.58
2018-09-25T13:28:29.029Z,7.60
2018-09-25T13:29:38.308Z,9.33
2018-09-25T13:30:47.631Z,4.97
2018-09-25T13:31:56.918Z,7.55
2018-09-25T13:33:06.567Z,9.75
2018-09-25T13:34:15.855Z,9.05
2018-09-25T13:35:25.214Z,5.35
2018-09-25T13:36:34.828Z,7.12
2018-09-25T13:37:44.082Z,10.82
2018-09-25T13:38:53.490Z,10.40
2018-09-25T13:40:03.050Z,3.83
2018-09-25T13:41:12.440Z,7.30
2018-09-25T13:42:21.743Z,16.35
2018-09-25T13:43:31.123Z,7.15
2018-09-25T13:44:40.457Z,9.73
2018-09-25T13:45:49.755Z,8.38
2018-09-25T13:46:59.084Z,8.38
2018-09-25T13:48:08.344Z,8.95
2018-09-25T13:49:17.733Z,8.68
2018-09-25T13:50:27.118Z,7.35
2018-09-25T13:51:36.426Z,11.30
2018-09-25T13:52:45.727Z,8.50
2018-09-25T13:53:55.226Z,5.50
2018-09-25T13:55:04.740Z,10.03
2018-09-25T13:56:14.206Z,9.90
2018-09-25T13:57:23.514Z,3.08
2018-09-25T13:58:33.012Z,4.30
2018-09-25T13:59:42.237Z,6.95
2018-09-25T14:00:52.067Z,5.58
2018-09-25T14:02:01.561Z,6.92
2018-09-25T14:03:11.426Z,11.48
2018-09-25T14:04:20.738Z,9.80
2018-09-25T14:05:30.203Z,5.72
2018-09-25T14:06:39.546Z,3.90
2018-09-25T14:07:49.191Z,6.67
2018-09-25T14:08:58.520Z,4.83
2018-09-25T14:10:07.907Z,12.18
2018-09-25T14:11:17.209Z,5.05
2018-09-25T14:12:26.491Z,4.87
2018-09-25T14:13:35.831Z,6.33
2018-09-25T14:14:45.094Z,4.05
2018-09-25T14:15:54.444Z,9.15
2018-09-25T14:17:03.726Z,4.62
2018-09-25T14:18:13.278Z,6.10
2018-09-25T14:19:22.675Z,4.58
2018-09-25T14:20:32.043Z,6.72
2018-09-25T14:21:41.344Z,5.25
2018-09-25T14:22:50.651Z,22.02
2018-09-25T14:23:59.925Z,4.22
2018-09-25T14:25:09.190Z,7.17
2018-09-25T14:26:18.464Z,6.30
2018-09-25T14:27:27.744Z,8.23
2018-09-25T14:28:37.305Z,5.47
2018-09-25T14:29:46.622Z,9.23
2018-09-25T14:30:56.629Z,4.87
2018-09-25T14:32:06.068Z,8.95
2018-09-25T14:33:15.482Z,12.00
2018-09-25T14:34:24.832Z,9.18
2018-09-25T14:35:34.665Z,4.28
2018-09-25T14:36:43.957Z,8.53
2018-09-25T14:37:53.219Z,3.90
2018-09-25T14:39:03.078Z,6.47
2018-09-25T14:40:13.074Z,7.15
2018-09-25T14:41:22.861Z,5.28
2018-09-25T14:42:32.692Z,9.20
2018-09-25T14:43:44.048Z,8.05
2018-09-25T14:44:54.494Z,8.55
2018-09-25T14:46:04.124Z,4.72
2018-09-25T14:47:13.789Z,4.83
2018-09-25T14:48:23.396Z,6.83
2018-09-25T14:49:33.175Z,3.83
2018-09-25T14:50:42.589Z,4.47
2018-09-25T14:51:52.155Z,5.28
2018-09-25T14:53:01.533Z,4.85
2018-09-25T14:54:18.362Z,2.98
2018-09-25T14:55:28.045Z,3.52
2018-09-25T14:56:37.597Z,4.83
2018-09-25T14:57:47.814Z,6.40
2018-09-25T14:58:57.602Z,5.05
2018-09-25T15:00:06.903Z,7.30
2018-09-25T15:01:16.112Z,9.20
2018-09-25T15:02:25.372Z,5.42
2018-09-25T15:03:34.651Z,3.58
2018-09-25T15:04:44.195Z,4.75